Terminal Aerodrome Forecast
Issued by NWS

Home | Current Version | Previous Version | Text Only | Print | Product List | Glossary On
Versions: 1 2 3 4 5 6 7 8 9 10 11 12 13 14 15 16 17 18 19 20 21 22 23 24 25 26 27 28 29 30 31 32 33 34
000
FTUS45 KGJT 221722
TAFCNY
TAF
KCNY 221722Z 2218/2318 27007KT P6SM SKC
     FM222100 29012KT P6SM FEW250
      TEMPO 2221/2224 27015G30KT
     FM230600 29007KT P6SM SKC
     FM231100 VRB03KT P6SM SKC=

USA.gov is the U.S. government's official web portal to all federal, state and local government web resources and services.